TAF KOGD
KOGD 090555Z 0906/1006 18004KT P6SM VCSH BKN050 FM090900 29006KT 6SM -SHRA BKN020 OVC025 FM091300 31006KT 3SM -RASN BKN010 OVC030 FM091600 32007KT 2SM -SN OVC009 FM092300 33010KT 4SM -SHSN SCT009 BKN014 FM100200 32006KT P6SM SCT050 BKN070=
METAR KOGD
WC KOGD
WS KOGD
WV KOGD